createdAt,value
2022-12-06T00:03:41.862Z,133.53846
2022-12-06T00:08:42.829Z,133.53846
2022-12-06T00:13:43.756Z,133.53846
2022-12-06T00:18:45.025Z,134.12346
2022-12-06T00:23:45.915Z,134.71207
2022-12-06T00:28:51.794Z,134.71207
2022-12-06T00:33:52.681Z,134.71207
2022-12-06T00:38:53.615Z,135.30435
2022-12-06T00:43:54.540Z,135.90031
2022-12-06T00:48:55.437Z,135.90031
2022-12-06T00:53:56.316Z,135.30435
2022-12-06T00:58:57.248Z,134.12346
2022-12-06T01:03:58.178Z,134.71207
2022-12-06T01:08:59.316Z,134.71207
2022-12-06T01:14:00.211Z,135.90031
2022-12-06T01:19:01.255Z,135.90031
2022-12-06T01:24:02.196Z,135.90031
2022-12-06T01:29:03.189Z,136.5
2022-12-06T01:34:04.069Z,135.90031
2022-12-06T01:39:04.994Z,135.30435
2022-12-06T01:44:05.954Z,134.71207
2022-12-06T01:49:06.870Z,134.12346
2022-12-06T01:54:07.740Z,134.12346
2022-12-06T01:59:08.738Z,134.71207
2022-12-06T02:04:09.690Z,134.71207
2022-12-06T02:09:10.637Z,134.12346
2022-12-06T02:14:11.525Z,134.71207
2022-12-06T02:19:12.468Z,134.12346
2022-12-06T02:24:13.370Z,134.71207
2022-12-06T02:29:14.288Z,135.30435
2022-12-06T02:34:15.214Z,134.71207
2022-12-06T02:39:16.132Z,135.30435
2022-12-06T02:44:17.104Z,134.71207
2022-12-06T02:49:18.038Z,135.30435
2022-12-06T02:54:18.990Z,135.90031
2022-12-06T02:59:19.919Z,135.90031
2022-12-06T03:04:20.804Z,135.90031
2022-12-06T03:09:21.691Z,135.30435
2022-12-06T03:14:22.627Z,135.90031
2022-12-06T03:19:23.558Z,136.5
2022-12-06T03:24:24.547Z,136.5
2022-12-06T03:29:25.472Z,135.90031
2022-12-06T03:34:26.470Z,135.90031
2022-12-06T03:39:27.404Z,136.5
2022-12-06T03:44:28.369Z,137.10345
2022-12-06T03:49:40.401Z,135.90031
2022-12-06T03:54:41.407Z,136.5
2022-12-06T03:59:42.684Z,137.10345
2022-12-06T04:04:43.605Z,137.10345
2022-12-06T04:09:44.523Z,137.10345
2022-12-06T04:14:45.422Z,136.5
2022-12-06T04:19:50.714Z,136.5
2022-12-06T04:24:52.996Z,136.5
2022-12-06T04:29:53.914Z,135.90031
2022-12-06T04:34:54.828Z,136.5
2022-12-06T04:39:55.748Z,137.10345
2022-12-06T04:44:56.794Z,135.90031
2022-12-06T04:49:58.982Z,135.90031
2022-12-06T04:55:00.206Z,135.30435
2022-12-06T05:00:01.393Z,134.71207
2022-12-06T05:05:07.538Z,135.30435
2022-12-06T05:10:08.428Z,134.71207
2022-12-06T05:15:09.364Z,135.30435
2022-12-06T05:20:10.266Z,135.30435
2022-12-06T05:25:11.174Z,135.90031
2022-12-06T05:30:12.150Z,134.71207
2022-12-06T05:35:13.036Z,134.71207
2022-12-06T05:40:13.953Z,134.12346
2022-12-06T05:45:14.882Z,134.71207
2022-12-06T05:50:15.804Z,134.12346
2022-12-06T05:55:16.716Z,134.12346
2022-12-06T06:00:17.637Z,134.12346
2022-12-06T06:05:18.553Z,134.12346
2022-12-06T06:10:19.694Z,134.12346
2022-12-06T06:15:20.640Z,134.12346
2022-12-06T06:20:21.579Z,134.12346
2022-12-06T06:25:22.808Z,134.12346
2022-12-06T06:30:23.731Z,134.12346
2022-12-06T06:35:24.724Z,134.71207
2022-12-06T06:40:25.719Z,135.90031
2022-12-06T06:45:28.988Z,135.30435
2022-12-06T06:50:30.248Z,135.30435
2022-12-06T06:55:31.209Z,135.90031
2022-12-06T07:00:32.147Z,135.90031
2022-12-06T07:05:33.087Z,135.90031
2022-12-06T07:10:33.998Z,135.90031
2022-12-06T07:15:34.943Z,135.30435
2022-12-06T07:20:35.919Z,135.30435
2022-12-06T07:25:36.831Z,135.30435
2022-12-06T07:30:37.835Z,135.90031
2022-12-06T07:36:10.827Z,135.30435
2022-12-06T07:41:13.305Z,134.71207
2022-12-06T07:46:14.258Z,134.71207
2022-12-06T07:51:15.195Z,135.30435
2022-12-06T07:56:16.113Z,134.71207
2022-12-06T08:01:17.044Z,135.30435
2022-12-06T08:06:17.993Z,134.71207
2022-12-06T08:11:18.895Z,134.12346
2022-12-06T08:16:19.973Z,133.53846
2022-12-06T08:21:20.911Z,134.12346
2022-12-06T08:26:22.824Z,134.12346
2022-12-06T08:31:23.810Z,134.71207
2022-12-06T08:36:24.808Z,135.30435
2022-12-06T08:41:25.694Z,134.71207
2022-12-06T08:46:26.744Z,135.30435
2022-12-06T08:51:27.746Z,134.71207
2022-12-06T08:56:28.709Z,134.12346
2022-12-06T09:01:35.780Z,134.12346
2022-12-06T09:06:40.481Z,133.53846
2022-12-06T09:11:41.415Z,133.53846
2022-12-06T09:16:42.268Z,133.53846
2022-12-06T09:21:43.304Z,133.53846
2022-12-06T09:26:44.219Z,133.53846
2022-12-06T09:31:45.216Z,132.95706
2022-12-06T09:36:46.204Z,132.95706
2022-12-06T09:41:47.138Z,134.12346
2022-12-06T09:46:48.387Z,134.71207
2022-12-06T09:51:49.470Z,134.12346
2022-12-06T09:56:50.410Z,132.95706
2022-12-06T10:01:51.415Z,131.80488
2022-12-06T10:06:52.390Z,131.80488
2022-12-06T10:11:58.280Z,131.80488
2022-12-06T10:16:59.213Z,131.80488
2022-12-06T10:22:00.108Z,131.80488
2022-12-06T10:27:01.077Z,132.3792
2022-12-06T10:32:01.975Z,131.80488
2022-12-06T10:37:02.931Z,131.80488
2022-12-06T10:42:03.850Z,132.95706
2022-12-06T10:47:04.864Z,133.53846
2022-12-06T10:52:05.919Z,132.3792
2022-12-06T10:57:06.919Z,132.3792
2022-12-06T11:02:07.920Z,132.3792
2022-12-06T11:07:08.904Z,132.3792
2022-12-06T11:12:09.879Z,131.80488
2022-12-06T11:17:10.885Z,132.3792
2022-12-06T11:22:11.846Z,132.3792
2022-12-06T11:27:12.791Z,132.3792
2022-12-06T11:32:13.727Z,131.80488
2022-12-06T11:37:14.634Z,131.80488
2022-12-06T11:42:15.580Z,131.80488
2022-12-06T11:47:16.483Z,132.3792
2022-12-06T11:52:17.417Z,133.53846
2022-12-06T11:57:22.456Z,132.95706
2022-12-06T12:02:23.969Z,132.3792
2022-12-06T12:07:24.917Z,132.3792
2022-12-06T12:12:25.831Z,131.80488
2022-12-06T12:17:26.737Z,131.23404
2022-12-06T12:22:27.671Z,131.80488
2022-12-06T12:27:28.812Z,133.53846
2022-12-06T12:32:29.787Z,132.95706
2022-12-06T12:37:30.652Z,132.95706
2022-12-06T12:42:31.543Z,133.53846
2022-12-06T12:47:32.504Z,132.95706
2022-12-06T12:52:33.533Z,133.53846
2022-12-06T12:57:34.594Z,132.95706
2022-12-06T13:02:35.551Z,134.12346
2022-12-06T13:07:36.463Z,134.12346
2022-12-06T13:12:37.394Z,133.53846
2022-12-06T13:17:38.317Z,132.95706
2022-12-06T13:22:39.264Z,132.3792
2022-12-06T13:27:40.148Z,132.3792
2022-12-06T13:32:41.037Z,132.3792
2022-12-06T13:37:41.943Z,132.3792
2022-12-06T13:42:42.857Z,132.95706
2022-12-06T13:47:43.858Z,134.71207
2022-12-06T13:52:44.751Z,134.71207
2022-12-06T13:57:45.658Z,135.30435
2022-12-06T14:02:46.699Z,135.30435
2022-12-06T14:07:47.847Z,134.71207
2022-12-06T14:12:49.091Z,134.12346
2022-12-06T14:18:03.361Z,133.53846
2022-12-06T14:23:06.638Z,132.95706
2022-12-06T14:28:07.633Z,132.95706
2022-12-06T14:33:08.542Z,132.3792
2022-12-06T14:38:09.525Z,132.3792
2022-12-06T14:43:10.439Z,131.80488
2022-12-06T14:48:11.370Z,131.80488
2022-12-06T14:53:12.277Z,131.80488
2022-12-06T14:58:13.172Z,132.3792
2022-12-06T15:03:14.655Z,132.3792
2022-12-06T15:08:15.823Z,132.3792
2022-12-06T15:13:16.806Z,132.3792
2022-12-06T15:18:17.798Z,132.3792
2022-12-06T15:23:18.724Z,132.95706
2022-12-06T15:28:19.902Z,132.95706
2022-12-06T15:33:21.051Z,132.95706
2022-12-06T15:38:21.938Z,132.95706
2022-12-06T15:43:22.859Z,132.3792
2022-12-06T15:48:23.841Z,133.53846
2022-12-06T15:53:24.789Z,133.53846
2022-12-06T15:58:25.709Z,133.53846
2022-12-06T16:03:26.746Z,133.53846
2022-12-06T16:08:27.841Z,133.53846
2022-12-06T16:13:28.804Z,132.95706
2022-12-06T16:18:29.754Z,132.95706
2022-12-06T16:23:49.398Z,132.95706
2022-12-06T16:29:12.075Z,132.3792
2022-12-06T16:34:12.975Z,132.3792
2022-12-06T16:39:14.050Z,132.3792
2022-12-06T16:44:15.024Z,132.95706
2022-12-06T16:49:44.635Z,132.3792
2022-12-06T16:54:47.060Z,131.80488
2022-12-06T16:59:48.153Z,131.80488
2022-12-06T17:04:49.692Z,131.23404
2022-12-06T17:09:50.756Z,130.66667
2022-12-06T17:14:51.738Z,131.23404
2022-12-06T17:19:52.650Z,130.66667
2022-12-06T17:24:53.569Z,130.10272
2022-12-06T17:29:54.455Z,131.23404
2022-12-06T17:34:55.353Z,131.80488
2022-12-06T17:39:56.276Z,131.23404
2022-12-06T17:44:57.187Z,131.23404
2022-12-06T17:49:58.324Z,130.66667
2022-12-06T17:54:59.678Z,131.23404
2022-12-06T18:00:00.889Z,131.23404
2022-12-06T18:05:02.054Z,131.23404
2022-12-06T18:10:03.081Z,131.23404
2022-12-06T18:15:04.333Z,130.66667
2022-12-06T18:20:05.438Z,130.10272
2022-12-06T18:25:06.360Z,131.23404
2022-12-06T18:30:07.278Z,130.10272
2022-12-06T18:35:08.165Z,130.66667
2022-12-06T18:40:09.098Z,129.54217
2022-12-06T18:45:10.023Z,130.10272
2022-12-06T18:50:10.961Z,129.54217
2022-12-06T18:55:11.866Z,129.54217
2022-12-06T19:00:12.798Z,128.98498
2022-12-06T19:05:19.764Z,129.54217
2022-12-06T19:10:28.725Z,128.98498
2022-12-06T19:15:29.658Z,128.43114
2022-12-06T19:20:30.566Z,128.98498
2022-12-06T19:25:31.485Z,130.10272
2022-12-06T19:30:32.530Z,131.23404
2022-12-06T19:35:33.489Z,132.3792
2022-12-06T19:40:34.383Z,131.80488
2022-12-06T19:45:35.308Z,132.3792
2022-12-06T19:50:36.262Z,132.95706
2022-12-06T19:55:37.215Z,132.3792
2022-12-06T20:00:38.119Z,134.12346
2022-12-06T20:05:39.057Z,134.12346
2022-12-06T20:10:39.979Z,134.12346
2022-12-06T20:15:40.941Z,135.90031
2022-12-06T20:20:41.894Z,135.90031
2022-12-06T20:25:42.862Z,135.30435
2022-12-06T20:30:43.868Z,135.90031
2022-12-06T20:35:44.815Z,135.90031
2022-12-06T20:40:45.732Z,136.5
2022-12-06T20:45:46.692Z,136.5
2022-12-06T20:50:47.619Z,136.5
2022-12-06T20:55:48.896Z,136.5
2022-12-06T21:00:49.900Z,137.10345
2022-12-06T21:05:55.298Z,138.32177
2022-12-06T21:11:21.499Z,137.10345
2022-12-06T21:16:24.086Z,138.32177
2022-12-06T21:21:25.097Z,139.55556
2022-12-06T21:26:26.033Z,138.93671
2022-12-06T21:31:27.134Z,138.32177
2022-12-06T21:36:28.174Z,138.32177
2022-12-06T21:41:29.104Z,138.93671
2022-12-06T21:46:30.164Z,140.17834
2022-12-06T21:51:31.206Z,142.70968
2022-12-06T21:56:32.142Z,142.07074
2022-12-06T22:01:33.100Z,141.4359
2022-12-06T22:06:34.123Z,141.4359
2022-12-06T22:11:35.054Z,142.70968
2022-12-06T22:16:36.076Z,142.07074
2022-12-06T22:21:37.092Z,144.0
2022-12-06T22:26:38.052Z,145.96721
2022-12-06T22:31:39.145Z,144.0
2022-12-06T22:36:40.116Z,144.65147
2022-12-06T22:41:41.161Z,143.35275
2022-12-06T22:46:42.116Z,144.0
2022-12-06T22:51:43.156Z,145.30719
2022-12-06T22:56:44.151Z,145.30719
2022-12-06T23:01:45.117Z,144.65147
2022-12-06T23:06:46.133Z,147.97351
2022-12-06T23:11:47.049Z,147.30033
2022-12-06T23:16:48.018Z,145.96721
2022-12-06T23:21:49.194Z,147.30033
2022-12-06T23:26:56.098Z,149.33333
2022-12-06T23:31:58.883Z,150.71141
2022-12-06T23:36:59.829Z,152.10811
2022-12-06T23:42:00.789Z,160.90141
2022-12-06T23:47:01.712Z,160.14035
2022-12-06T23:52:02.661Z,156.41379
2022-12-06T23:57:03.530Z,157.14879
